createdAt,value
2023-04-18T00:00:11.096Z,22.80
2023-04-18T00:01:11.078Z,16.94
2023-04-18T00:02:11.221Z,18.56
2023-04-18T00:03:11.336Z,20.84
2023-04-18T00:04:11.508Z,23.16
2023-04-18T00:05:11.152Z,22.16
2023-04-18T00:06:11.074Z,17.44
2023-04-18T00:07:11.115Z,18.36
2023-04-18T00:08:11.072Z,17.36
2023-04-18T00:09:11.196Z,18.68
2023-04-18T00:10:11.071Z,19.22
2023-04-18T00:11:11.081Z,18.12
2023-04-18T00:12:11.082Z,19.28
2023-04-18T00:13:11.076Z,16.02
2023-04-18T00:14:11.229Z,16.76
2023-04-18T00:15:12.072Z,19.12
2023-04-18T00:16:11.074Z,18.72
2023-04-18T00:17:12.215Z,19.02
2023-04-18T00:18:11.081Z,18.82
2023-04-18T00:19:11.071Z,19.46
2023-04-18T00:20:11.125Z,16.54
2023-04-18T00:21:11.099Z,23.12
2023-04-18T00:22:11.074Z,17.18
2023-04-18T00:23:12.846Z,16.56
2023-04-18T00:24:11.089Z,18.30
2023-04-18T00:25:11.086Z,20.68
2023-04-18T00:26:11.084Z,20.56
2023-04-18T00:27:11.072Z,23.04
2023-04-18T00:28:11.076Z,18.88
2023-04-18T00:29:11.089Z,20.64
2023-04-18T00:30:11.077Z,18.86
2023-04-18T00:31:11.155Z,16.82
2023-04-18T00:32:11.084Z,19.58
2023-04-18T00:33:11.098Z,18.58
2023-04-18T00:34:11.178Z,18.30
2023-04-18T00:35:11.082Z,21.70
2023-04-18T00:36:11.078Z,18.10
2023-04-18T00:37:11.070Z,15.62
2023-04-18T00:38:11.078Z,15.26
2023-04-18T00:39:11.075Z,13.96
2023-04-18T00:40:11.076Z,17.58
2023-04-18T00:41:11.076Z,14.96
2023-04-18T00:42:11.084Z,16.44
2023-04-18T00:43:12.076Z,13.48
2023-04-18T00:44:11.238Z,18.28
2023-04-18T00:45:11.076Z,14.02
2023-04-18T00:46:11.188Z,15.96
2023-04-18T00:47:11.078Z,18.34
2023-04-18T00:48:11.086Z,17.06
2023-04-18T00:49:11.096Z,16.34
2023-04-18T00:50:11.097Z,15.08
2023-04-18T00:51:11.094Z,17.52
2023-04-18T00:52:11.080Z,15.14
2023-04-18T00:53:11.114Z,17.20
2023-04-18T00:54:11.161Z,19.94
2023-04-18T00:55:11.073Z,14.92
2023-04-18T00:56:11.079Z,15.80
2023-04-18T00:57:11.084Z,20.12
2023-04-18T00:58:11.075Z,19.52
2023-04-18T00:59:11.096Z,21.16
2023-04-18T01:00:13.082Z,19.80
2023-04-18T01:01:11.093Z,16.42
2023-04-18T01:02:11.107Z,16.28
2023-04-18T01:04:09.384Z,17.88
2023-04-18T01:04:13.672Z,17.24
2023-04-18T01:05:11.094Z,16.86
2023-04-18T01:06:11.059Z,16.16
2023-04-18T01:07:11.068Z,14.88
2023-04-18T01:08:11.066Z,14.86
2023-04-18T01:09:11.063Z,12.14
2023-04-18T01:10:11.067Z,17.30
2023-04-18T01:11:11.065Z,20.22
2023-04-18T01:12:11.058Z,14.58
2023-04-18T01:13:19.078Z,13.40
2023-04-18T01:14:11.221Z,13.28
2023-04-18T01:15:11.062Z,13.22
2023-04-18T01:16:11.088Z,17.86
2023-04-18T01:17:11.066Z,13.78
2023-04-18T01:18:11.068Z,14.88
2023-04-18T01:19:11.064Z,14.28
2023-04-18T01:20:11.072Z,19.48
2023-04-18T01:21:11.057Z,13.90
2023-04-18T01:22:11.063Z,15.02
2023-04-18T01:25:13.021Z,14.90
2023-04-18T01:31:13.100Z,14.02
2023-04-18T01:32:11.062Z,15.44
2023-04-18T01:33:11.086Z,16.88
2023-04-18T01:34:11.183Z,15.78
2023-04-18T01:35:11.062Z,16.02
2023-04-18T01:36:11.061Z,16.34
2023-04-18T01:37:11.063Z,17.34
2023-04-18T01:38:11.063Z,15.74
2023-04-18T01:39:11.067Z,14.54
2023-04-18T01:40:11.063Z,19.86
2023-04-18T01:41:11.064Z,19.04
2023-04-18T01:42:11.062Z,17.86
2023-04-18T01:43:11.067Z,20.34
2023-04-18T01:44:11.119Z,19.88
2023-04-18T01:45:11.062Z,18.98
2023-04-18T01:46:11.074Z,17.96
2023-04-18T01:47:11.060Z,20.66
2023-04-18T01:48:11.063Z,16.40
2023-04-18T01:49:11.063Z,19.02
2023-04-18T01:50:11.078Z,17.50
2023-04-18T01:51:11.062Z,16.40
2023-04-18T01:52:11.082Z,17.76
2023-04-18T01:53:11.065Z,18.52
2023-04-18T01:54:11.150Z,20.30
2023-04-18T01:55:11.086Z,19.10
2023-04-18T01:56:11.063Z,21.88
2023-04-18T01:57:12.064Z,20.08
2023-04-18T01:58:11.083Z,18.48
2023-04-18T01:59:11.068Z,18.22
2023-04-18T02:00:11.065Z,24.72
2023-04-18T02:01:11.115Z,21.16
2023-04-18T02:02:11.173Z,20.54
2023-04-18T02:03:11.281Z,18.94
2023-04-18T02:04:11.237Z,22.46
2023-04-18T02:05:11.086Z,23.48
2023-04-18T02:06:11.061Z,26.82
2023-04-18T02:07:11.105Z,23.24
2023-04-18T02:08:11.083Z,28.86
2023-04-18T02:09:11.072Z,23.24
2023-04-18T02:10:11.076Z,33.30
2023-04-18T02:11:11.080Z,18.66
2023-04-18T02:12:11.063Z,28.58
2023-04-18T02:13:11.072Z,22.34
2023-04-18T02:14:11.109Z,25.00
2023-04-18T02:15:11.066Z,25.74
2023-04-18T02:16:13.098Z,27.64
2023-04-18T02:17:11.070Z,27.76
2023-04-18T02:18:11.068Z,25.90
2023-04-18T02:19:11.071Z,31.38
2023-04-18T02:20:12.079Z,27.36
2023-04-18T02:21:11.091Z,24.66
2023-04-18T02:22:11.066Z,23.54
2023-04-18T02:23:11.071Z,30.66
2023-04-18T02:24:11.222Z,27.20
2023-04-18T02:25:11.070Z,25.82
2023-04-18T02:26:11.096Z,25.56
2023-04-18T02:27:11.084Z,25.84
2023-04-18T02:28:11.067Z,29.20
2023-04-18T02:29:11.064Z,27.38
2023-04-18T02:30:11.087Z,29.30
2023-04-18T02:31:11.071Z,30.30
2023-04-18T02:32:11.108Z,26.60
2023-04-18T02:33:11.071Z,24.58
2023-04-18T02:34:11.214Z,27.72
2023-04-18T02:35:11.073Z,27.02
2023-04-18T02:36:11.069Z,31.80
2023-04-18T02:37:11.074Z,26.46
2023-04-18T02:38:11.070Z,29.50
2023-04-18T02:39:11.071Z,28.70
2023-04-18T02:40:11.076Z,27.04
2023-04-18T02:41:11.072Z,29.60
2023-04-18T02:42:11.071Z,28.12
2023-04-18T02:43:11.074Z,28.88
2023-04-18T02:44:11.347Z,32.66
2023-04-18T02:45:11.070Z,29.54
2023-04-18T02:46:11.165Z,30.12
2023-04-18T02:47:11.069Z,29.04
2023-04-18T02:48:11.101Z,29.66
2023-04-18T02:49:11.079Z,31.04
2023-04-18T02:50:11.084Z,25.20
2023-04-18T02:51:11.065Z,31.04
2023-04-18T02:52:11.078Z,27.08
2023-04-18T02:53:11.069Z,28.58
2023-04-18T02:54:11.158Z,28.82
2023-04-18T02:55:11.067Z,37.02
2023-04-18T02:56:11.070Z,31.32
2023-04-18T02:57:11.079Z,28.08
2023-04-18T02:58:11.075Z,35.32
2023-04-18T02:59:11.083Z,34.58
2023-04-18T03:00:11.067Z,28.72
2023-04-18T03:01:11.118Z,34.10
2023-04-18T03:02:11.100Z,32.68
2023-04-18T03:03:11.130Z,26.66
2023-04-18T03:04:11.149Z,30.28
2023-04-18T03:05:11.103Z,32.22
2023-04-18T03:06:11.071Z,28.06
2023-04-18T03:07:11.072Z,27.50
2023-04-18T03:08:11.085Z,28.64
2023-04-18T03:09:11.078Z,29.60
2023-04-18T03:10:11.081Z,29.62
2023-04-18T03:11:11.080Z,28.74
2023-04-18T03:12:11.075Z,27.40
2023-04-18T03:13:11.071Z,30.60
2023-04-18T03:14:11.185Z,26.48
2023-04-18T03:15:11.078Z,30.52
2023-04-18T03:16:11.122Z,29.34
2023-04-18T03:17:11.071Z,31.26
2023-04-18T03:18:11.081Z,25.98
2023-04-18T03:19:11.073Z,29.02
2023-04-18T03:20:11.085Z,25.46
2023-04-18T03:21:11.079Z,27.32
2023-04-18T03:22:11.074Z,25.32
2023-04-18T03:23:11.074Z,22.42
2023-04-18T03:24:12.224Z,27.52
2023-04-18T03:25:11.075Z,22.72
2023-04-18T03:26:11.075Z,27.30
2023-04-18T03:27:11.074Z,25.36
2023-04-18T03:28:11.071Z,26.52
2023-04-18T03:29:11.073Z,24.38
2023-04-18T03:30:11.074Z,28.98
2023-04-18T03:31:11.089Z,24.84
2023-04-18T03:32:11.068Z,27.96
2023-04-18T03:33:11.073Z,28.02
2023-04-18T03:34:11.142Z,26.18
2023-04-18T03:35:11.081Z,30.90
2023-04-18T03:36:11.070Z,29.14
2023-04-18T03:37:11.073Z,23.70
2023-04-18T03:38:11.072Z,27.28
2023-04-18T03:39:11.072Z,26.06
2023-04-18T03:40:11.084Z,31.22
2023-04-18T03:41:11.071Z,30.74
2023-04-18T03:42:11.075Z,29.62
2023-04-18T03:43:11.086Z,26.42
2023-04-18T03:44:11.266Z,24.52
2023-04-18T03:45:11.073Z,28.28
2023-04-18T03:46:11.163Z,28.60
2023-04-18T03:47:11.071Z,28.50
2023-04-18T03:48:11.104Z,27.32
2023-04-18T03:49:11.096Z,28.86
2023-04-18T03:50:11.074Z,28.82
2023-04-18T03:51:11.074Z,30.22
2023-04-18T03:52:11.098Z,35.36
2023-04-18T03:53:11.083Z,35.98
2023-04-18T03:54:11.191Z,38.02
2023-04-18T03:55:11.083Z,38.48
2023-04-18T03:56:11.072Z,33.78
2023-04-18T03:57:11.079Z,30.12
2023-04-18T03:58:11.082Z,27.72
2023-04-18T03:59:11.085Z,41.42
2023-04-18T04:00:11.091Z,33.76
2023-04-18T04:01:11.073Z,32.34
2023-04-18T04:02:11.145Z,35.88
2023-04-18T04:03:11.372Z,31.62
2023-04-18T04:04:11.182Z,33.48
2023-04-18T04:05:11.158Z,31.06
2023-04-18T04:06:11.064Z,30.20
2023-04-18T04:07:11.081Z,32.22
2023-04-18T04:08:11.061Z,24.28
2023-04-18T04:09:11.075Z,29.88
2023-04-18T04:10:11.070Z,28.32
2023-04-18T04:11:11.066Z,31.10
2023-04-18T04:12:11.066Z,32.74
2023-04-18T04:13:11.066Z,26.46
2023-04-18T04:14:11.132Z,28.68
2023-04-18T04:15:11.060Z,26.24
2023-04-18T04:16:11.145Z,27.18
2023-04-18T04:17:11.064Z,29.46
2023-04-18T04:18:11.091Z,25.40
2023-04-18T04:19:11.072Z,27.32
2023-04-18T04:20:11.071Z,27.10
2023-04-18T04:21:11.060Z,30.48
2023-04-18T04:22:11.080Z,29.72
2023-04-18T04:23:11.066Z,30.50
2023-04-18T04:24:11.087Z,27.10
2023-04-18T04:25:11.076Z,26.86
2023-04-18T04:26:11.072Z,33.04
2023-04-18T04:27:11.066Z,25.74
2023-04-18T04:28:11.072Z,31.50
2023-04-18T04:29:11.071Z,29.00
2023-04-18T04:30:13.216Z,27.94
2023-04-18T04:31:14.065Z,30.20
2023-04-18T04:32:11.112Z,26.98
2023-04-18T04:33:11.062Z,26.14
2023-04-18T04:34:11.063Z,22.90
2023-04-18T04:35:11.072Z,27.98
2023-04-18T04:36:11.061Z,26.64
2023-04-18T04:37:11.061Z,26.64
2023-04-18T04:38:11.070Z,28.64
2023-04-18T04:39:11.063Z,36.92
2023-04-18T04:40:11.059Z,25.16
2023-04-18T04:41:11.070Z,26.50
2023-04-18T04:42:11.062Z,26.62
2023-04-18T04:43:11.061Z,26.18
2023-04-18T04:44:11.092Z,31.64
2023-04-18T04:45:12.065Z,30.18
2023-04-18T04:46:11.074Z,26.66
2023-04-18T04:47:11.058Z,29.16
2023-04-18T04:48:11.075Z,27.56
2023-04-18T04:49:12.071Z,29.12
2023-04-18T04:50:11.063Z,30.30
2023-04-18T04:51:11.074Z,26.82
2023-04-18T04:52:11.061Z,30.24
2023-04-18T04:53:11.065Z,30.08
2023-04-18T04:54:11.133Z,28.08
2023-04-18T04:55:11.070Z,28.28
2023-04-18T04:56:11.110Z,28.24
2023-04-18T04:57:11.071Z,26.96
2023-04-18T04:58:11.065Z,26.06
2023-04-18T04:59:11.060Z,26.58
2023-04-18T05:00:11.086Z,29.28
2023-04-18T05:01:11.089Z,28.14
2023-04-18T05:02:11.162Z,27.24
2023-04-18T05:03:11.210Z,31.56
2023-04-18T05:04:11.151Z,26.38
2023-04-18T05:05:11.064Z,29.06
2023-04-18T05:06:11.075Z,31.84
2023-04-18T05:07:11.066Z,34.12
2023-04-18T05:08:11.064Z,36.88
2023-04-18T05:09:11.070Z,30.74
2023-04-18T05:10:11.072Z,38.62
2023-04-18T05:11:11.063Z,29.12
2023-04-18T05:12:11.065Z,32.60
2023-04-18T05:13:11.077Z,34.88
2023-04-18T05:14:11.069Z,34.50
2023-04-18T05:15:11.064Z,32.74
2023-04-18T05:16:11.140Z,32.80
2023-04-18T05:17:11.067Z,32.62
2023-04-18T05:18:11.063Z,33.20
2023-04-18T05:19:11.070Z,30.48
2023-04-18T05:20:11.065Z,31.80
2023-04-18T05:21:11.064Z,33.82
2023-04-18T05:22:11.068Z,30.20
2023-04-18T05:23:11.111Z,34.44
2023-04-18T05:24:11.088Z,32.70
2023-04-18T05:25:11.106Z,35.26
2023-04-18T05:26:11.109Z,35.62
2023-04-18T05:27:11.093Z,34.28
2023-04-18T05:28:12.099Z,35.56
2023-04-18T05:29:11.085Z,38.46
2023-04-18T05:30:11.087Z,36.68
2023-04-18T05:31:11.119Z,35.20
2023-04-18T05:32:11.090Z,35.08
2023-04-18T05:33:11.130Z,38.28
2023-04-18T05:34:11.138Z,39.84
2023-04-18T05:35:11.082Z,37.08
2023-04-18T05:36:11.072Z,39.68
2023-04-18T05:37:11.067Z,38.02
2023-04-18T05:38:11.073Z,38.82
2023-04-18T05:39:11.075Z,37.58
2023-04-18T05:40:11.069Z,38.18
2023-04-18T05:41:11.088Z,39.54
2023-04-18T05:42:11.072Z,41.96
2023-04-18T05:43:11.070Z,37.08
2023-04-18T05:44:11.071Z,35.64
2023-04-18T05:45:11.071Z,35.80
2023-04-18T05:46:11.108Z,31.54
2023-04-18T05:47:11.072Z,36.80
2023-04-18T05:48:11.169Z,36.96
2023-04-18T05:49:11.073Z,32.96
2023-04-18T05:50:11.086Z,35.80
2023-04-18T05:51:11.718Z,29.70
2023-04-18T05:52:11.072Z,35.72
2023-04-18T05:53:11.085Z,34.54
2023-04-18T05:54:11.142Z,31.72
2023-04-18T05:55:11.070Z,33.02
2023-04-18T05:56:11.086Z,37.70
2023-04-18T05:57:11.080Z,35.22
2023-04-18T05:58:11.073Z,39.26
2023-04-18T05:59:11.069Z,35.16
2023-04-18T06:00:11.084Z,34.12
2023-04-18T06:01:11.076Z,33.62
2023-04-18T06:02:14.146Z,31.26
2023-04-18T06:03:11.689Z,35.46
2023-04-18T06:04:11.200Z,29.40
2023-04-18T06:05:11.336Z,34.38
2023-04-18T06:06:11.074Z,33.52
2023-04-18T06:07:11.081Z,33.64
2023-04-18T06:08:11.071Z,34.40
2023-04-18T06:09:11.085Z,37.92
2023-04-18T06:10:13.092Z,32.28
2023-04-18T06:11:11.075Z,34.14
2023-04-18T06:12:11.071Z,35.20
2023-04-18T06:13:11.080Z,28.66
2023-04-18T06:14:11.107Z,30.60
2023-04-18T06:15:11.071Z,31.44
2023-04-18T06:16:11.114Z,35.14
2023-04-18T06:17:11.076Z,30.54
2023-04-18T06:18:11.076Z,32.64
2023-04-18T06:19:11.077Z,29.78
2023-04-18T06:20:11.115Z,30.98
2023-04-18T06:21:11.074Z,36.10
2023-04-18T06:22:11.077Z,39.44
2023-04-18T06:23:11.082Z,32.20
2023-04-18T06:24:11.076Z,34.02
2023-04-18T06:25:11.083Z,32.20
2023-04-18T06:26:11.081Z,34.34
2023-04-18T06:27:17.698Z,34.40
2023-04-18T06:28:13.084Z,32.26
2023-04-18T06:29:11.077Z,41.02
2023-04-18T06:30:11.071Z,35.30
2023-04-18T06:31:11.102Z,31.12
2023-04-18T06:32:11.073Z,29.50
2023-04-18T06:33:11.096Z,28.48
2023-04-18T06:34:11.091Z,27.80
2023-04-18T06:35:11.074Z,29.48
2023-04-18T06:36:11.078Z,28.66
2023-04-18T06:37:11.079Z,26.70
2023-04-18T06:38:12.078Z,34.44
2023-04-18T06:39:11.084Z,31.10
2023-04-18T06:40:13.076Z,30.02
2023-04-18T06:41:11.078Z,30.52
2023-04-18T06:42:11.083Z,28.60
2023-04-18T06:43:11.078Z,27.10
2023-04-18T06:44:11.106Z,32.96
2023-04-18T06:45:11.080Z,24.96
2023-04-18T06:46:11.108Z,28.22
2023-04-18T06:47:11.082Z,31.68
2023-04-18T06:48:11.077Z,28.60
2023-04-18T06:49:11.159Z,30.66
2023-04-18T06:50:11.077Z,30.50
2023-04-18T06:51:11.081Z,33.16
2023-04-18T06:52:11.076Z,24.88
2023-04-18T06:53:11.077Z,26.02
2023-04-18T06:54:11.076Z,25.56
2023-04-18T06:55:11.081Z,25.74
2023-04-18T06:56:11.091Z,31.26
2023-04-18T06:57:11.110Z,35.80
2023-04-18T06:58:11.078Z,29.68
2023-04-18T06:59:11.170Z,30.18
2023-04-18T07:00:11.077Z,30.14
2023-04-18T07:01:11.129Z,34.56
2023-04-18T07:02:11.115Z,33.56
2023-04-18T07:03:13.614Z,26.88
2023-04-18T07:04:11.201Z,26.68
2023-04-18T07:05:11.132Z,25.84
2023-04-18T07:06:11.123Z,30.04
2023-04-18T07:07:11.081Z,28.62
2023-04-18T07:08:11.065Z,22.96
2023-04-18T07:09:11.073Z,24.90
2023-04-18T07:10:11.072Z,25.54
2023-04-18T07:11:11.064Z,23.60
2023-04-18T07:12:11.058Z,26.78
2023-04-18T07:13:11.058Z,22.48
2023-04-18T07:14:11.080Z,23.04
2023-04-18T07:15:11.059Z,22.84
2023-04-18T07:16:11.069Z,24.22
2023-04-18T07:17:11.138Z,21.54
2023-04-18T07:18:11.062Z,24.58
2023-04-18T07:19:11.060Z,25.04
2023-04-18T07:20:12.304Z,22.10
2023-04-18T07:21:12.061Z,27.34
2023-04-18T07:22:11.065Z,31.92
2023-04-18T07:23:11.062Z,26.76
2023-04-18T07:24:11.119Z,23.96
2023-04-18T07:25:11.060Z,23.14
2023-04-18T07:26:11.061Z,29.30
2023-04-18T07:27:11.062Z,25.98
2023-04-18T07:28:11.064Z,30.64
2023-04-18T07:29:11.132Z,27.68
2023-04-18T07:30:11.078Z,25.86
2023-04-18T07:31:11.117Z,26.50
2023-04-18T07:32:11.069Z,28.64
2023-04-18T07:33:11.061Z,30.70
2023-04-18T07:34:11.058Z,32.40
2023-04-18T07:35:11.076Z,30.90
2023-04-18T07:36:11.059Z,32.88
2023-04-18T07:37:12.545Z,29.10
2023-04-18T07:38:11.069Z,28.50
2023-04-18T07:39:11.065Z,26.00
2023-04-18T07:40:11.060Z,31.62
2023-04-18T07:41:11.065Z,27.06
2023-04-18T07:42:11.068Z,26.08
2023-04-18T07:43:11.061Z,29.50
2023-04-18T07:44:11.234Z,26.94
2023-04-18T07:45:11.069Z,26.48
2023-04-18T07:46:11.100Z,21.78
2023-04-18T07:47:11.122Z,26.60
2023-04-18T07:48:11.143Z,26.26
2023-04-18T07:49:11.186Z,25.80
2023-04-18T07:50:11.081Z,28.88
2023-04-18T07:51:11.075Z,25.78
2023-04-18T07:52:11.071Z,26.70
2023-04-18T07:53:11.072Z,23.60
2023-04-18T07:54:11.074Z,28.18
2023-04-18T07:55:11.066Z,30.36
2023-04-18T07:56:11.070Z,27.18
2023-04-18T07:57:11.077Z,27.92
2023-04-18T07:58:11.066Z,29.58
2023-04-18T07:59:11.079Z,27.28
2023-04-18T08:00:11.072Z,32.66
2023-04-18T08:01:11.069Z,28.18
2023-04-18T08:02:11.114Z,28.18
2023-04-18T08:03:11.259Z,27.36
2023-04-18T08:04:11.148Z,26.14
2023-04-18T08:05:11.210Z,30.30
2023-04-18T08:06:11.074Z,26.62
2023-04-18T08:07:11.076Z,28.66
2023-04-18T08:08:11.070Z,27.06
2023-04-18T08:09:11.128Z,28.78
2023-04-18T08:10:11.088Z,25.14
2023-04-18T08:11:11.068Z,26.58
2023-04-18T08:12:11.070Z,26.24
2023-04-18T08:13:11.076Z,25.36
2023-04-18T08:14:11.080Z,27.30
2023-04-18T08:15:11.096Z,25.66
2023-04-18T08:16:11.144Z,26.02
2023-04-18T08:17:11.069Z,25.42
2023-04-18T08:18:11.070Z,28.38
2023-04-18T08:19:11.228Z,26.84
2023-04-18T08:20:11.071Z,23.46
2023-04-18T08:21:11.068Z,25.62
2023-04-18T08:22:11.079Z,27.76
2023-04-18T08:23:13.083Z,27.06
2023-04-18T08:24:11.080Z,26.82
2023-04-18T08:25:11.072Z,30.36
2023-04-18T08:26:11.075Z,29.20
2023-04-18T08:27:11.089Z,26.48
2023-04-18T08:28:11.069Z,25.06
2023-04-18T08:29:11.185Z,32.30
2023-04-18T08:30:11.078Z,25.30
2023-04-18T08:31:13.090Z,26.16
2023-04-18T08:32:11.162Z,23.40
2023-04-18T08:33:11.101Z,21.14
2023-04-18T08:34:11.074Z,25.74
2023-04-18T08:35:11.077Z,27.64
2023-04-18T08:36:11.073Z,25.62
2023-04-18T08:37:11.089Z,28.82
2023-04-18T08:38:11.080Z,24.72
2023-04-18T08:39:11.208Z,27.14
2023-04-18T08:40:11.082Z,28.00
2023-04-18T08:41:11.079Z,26.62
2023-04-18T08:42:11.086Z,29.86
2023-04-18T08:43:11.083Z,25.26
2023-04-18T08:44:11.159Z,25.56
2023-04-18T08:45:11.074Z,24.12
2023-04-18T08:46:11.139Z,27.74
2023-04-18T08:47:11.079Z,25.98
2023-04-18T08:48:13.092Z,24.32
2023-04-18T08:49:11.991Z,33.36
2023-04-18T08:50:11.077Z,25.38
2023-04-18T08:51:11.073Z,28.26
2023-04-18T08:52:14.095Z,34.64
2023-04-18T08:53:11.074Z,24.92
2023-04-18T08:54:11.078Z,26.92
2023-04-18T08:55:11.072Z,28.16
2023-04-18T08:56:14.068Z,28.24
2023-04-18T08:57:11.080Z,28.82
2023-04-18T08:58:11.074Z,27.86
2023-04-18T08:59:11.075Z,23.86
2023-04-18T09:00:13.080Z,23.62
2023-04-18T09:01:11.121Z,29.66
2023-04-18T09:02:11.105Z,27.56
2023-04-18T09:03:13.107Z,29.28
2023-04-18T09:04:11.094Z,24.28
2023-04-18T09:05:15.129Z,25.44
2023-04-18T09:06:14.116Z,24.02
2023-04-18T09:07:15.070Z,23.28
2023-04-18T09:08:19.068Z,23.94
2023-04-18T09:09:11.237Z,23.24
2023-04-18T09:10:11.089Z,27.76
2023-04-18T09:11:19.072Z,27.24
2023-04-18T09:12:11.070Z,27.06
2023-04-18T09:13:11.074Z,28.54
2023-04-18T09:14:15.198Z,27.68
2023-04-18T09:15:15.098Z,20.58
2023-04-18T09:16:11.096Z,22.98
2023-04-18T09:17:11.084Z,20.68
2023-04-18T09:18:11.107Z,24.50
2023-04-18T09:19:14.610Z,13.36
2023-04-18T09:20:11.075Z,20.18
2023-04-18T09:21:17.085Z,25.22
2023-04-18T09:22:12.076Z,22.66
2023-04-18T09:23:11.490Z,21.24
2023-04-18T09:24:19.093Z,23.30
2023-04-18T09:25:12.077Z,21.04
2023-04-18T09:26:11.083Z,28.20
2023-04-18T09:27:13.080Z,22.38
2023-04-18T09:28:19.084Z,23.66
2023-04-18T09:29:11.160Z,26.98
2023-04-18T09:30:11.083Z,22.30
2023-04-18T09:31:11.140Z,20.80
2023-04-18T09:32:11.082Z,23.78
2023-04-18T09:33:11.077Z,22.10
2023-04-18T09:34:19.089Z,25.80
2023-04-18T09:35:11.087Z,17.48
2023-04-18T09:36:20.147Z,22.72
2023-04-18T09:37:13.138Z,20.40
2023-04-18T09:38:11.088Z,20.64
2023-04-18T09:39:15.231Z,19.54
2023-04-18T09:40:17.084Z,19.16
2023-04-18T09:41:11.108Z,20.12
2023-04-18T09:42:11.090Z,22.30
2023-04-18T09:43:17.103Z,15.84
2023-04-18T09:44:14.503Z,22.38
2023-04-18T09:45:11.090Z,21.30
2023-04-18T09:46:11.158Z,21.02
2023-04-18T09:47:11.082Z,23.60
2023-04-18T09:48:11.088Z,21.02
2023-04-18T09:49:11.385Z,23.80
2023-04-18T09:50:11.086Z,22.98
2023-04-18T09:51:11.116Z,22.26
2023-04-18T09:52:11.092Z,18.86
2023-04-18T09:53:11.086Z,15.28
2023-04-18T09:54:14.260Z,21.30
2023-04-18T09:55:11.085Z,15.94
2023-04-18T09:56:19.085Z,17.96
2023-04-18T09:57:12.083Z,23.06
2023-04-18T09:58:12.083Z,25.14
2023-04-18T09:59:11.105Z,19.86
2023-04-18T10:00:22.068Z,13.42
2023-04-18T10:01:11.101Z,19.00
2023-04-18T10:02:15.096Z,14.18
2023-04-18T10:03:11.134Z,22.22
2023-04-18T10:04:12.387Z,18.90
2023-04-18T10:05:11.096Z,18.06
2023-04-18T10:06:11.079Z,21.34
2023-04-18T10:07:11.061Z,17.74
2023-04-18T10:08:11.064Z,15.96
2023-04-18T10:09:11.131Z,14.82
2023-04-18T10:10:11.074Z,14.40
2023-04-18T10:11:11.069Z,14.82
2023-04-18T10:12:11.062Z,18.96
2023-04-18T10:13:11.126Z,19.48
2023-04-18T10:14:12.331Z,20.04
2023-04-18T10:15:11.064Z,19.36
2023-04-18T10:16:11.150Z,18.36
2023-04-18T10:17:11.074Z,16.54
2023-04-18T10:18:16.072Z,17.32
2023-04-18T10:19:19.069Z,18.28
2023-04-18T10:20:15.065Z,16.04
2023-04-18T10:21:11.072Z,15.46
2023-04-18T10:22:11.061Z,16.00
2023-04-18T10:23:19.065Z,13.60
2023-04-18T10:24:19.071Z,12.94
2023-04-18T10:25:11.065Z,21.42
2023-04-18T10:26:11.129Z,13.94
2023-04-18T10:27:11.063Z,15.54
2023-04-18T10:28:11.064Z,10.98
2023-04-18T10:29:11.203Z,16.28
2023-04-18T10:30:11.080Z,16.64
2023-04-18T10:31:11.081Z,14.42
2023-04-18T10:32:11.067Z,16.26
2023-04-18T10:33:29.351Z,19.70
2023-04-18T10:34:14.061Z,17.28
2023-04-18T10:35:11.080Z,16.72
2023-04-18T10:36:15.076Z,12.70
2023-04-18T10:37:11.070Z,15.30
2023-04-18T10:38:16.078Z,16.20
2023-04-18T10:39:19.073Z,15.84
2023-04-18T10:40:11.101Z,17.70
2023-04-18T10:41:18.092Z,16.36
2023-04-18T10:42:11.071Z,18.10
2023-04-18T10:43:11.070Z,21.24
2023-04-18T10:44:19.097Z,23.28
2023-04-18T10:45:19.078Z,18.96
2023-04-18T10:46:27.972Z,15.98
2023-04-18T10:47:20.119Z,17.68
2023-04-18T10:48:19.083Z,14.46
2023-04-18T10:49:21.946Z,17.94
2023-04-18T10:50:11.081Z,14.56
2023-04-18T10:51:15.087Z,18.16
2023-04-18T10:52:12.936Z,33.70
2023-04-18T10:53:11.071Z,13.76
2023-04-18T10:54:12.163Z,17.96
2023-04-18T10:55:18.085Z,15.62
2023-04-18T10:56:13.078Z,11.58
2023-04-18T10:57:11.084Z,15.00
2023-04-18T10:58:11.073Z,13.92
2023-04-18T10:59:11.109Z,22.36
2023-04-18T11:00:11.100Z,14.52
2023-04-18T11:01:14.094Z,20.16
2023-04-18T11:02:19.111Z,13.20
2023-04-18T11:03:11.285Z,16.22
2023-04-18T11:04:13.704Z,14.94
2023-04-18T11:05:11.074Z,18.22
2023-04-18T11:06:11.082Z,15.46
2023-04-18T11:07:11.085Z,14.42
2023-04-18T11:08:19.073Z,12.88
2023-04-18T11:09:13.083Z,16.96
2023-04-18T11:10:11.072Z,13.40
2023-04-18T11:11:13.072Z,13.94
2023-04-18T11:12:11.078Z,23.22
2023-04-18T11:13:11.080Z,13.20
2023-04-18T11:14:11.074Z,17.44
2023-04-18T11:15:13.087Z,17.66
2023-04-18T11:16:15.133Z,15.44
2023-04-18T11:17:19.075Z,24.18
2023-04-18T11:18:11.109Z,15.94
2023-04-18T11:19:17.090Z,18.48
2023-04-18T11:20:13.077Z,14.28
2023-04-18T11:21:11.074Z,10.32
2023-04-18T11:22:11.076Z,12.20
2023-04-18T11:23:17.082Z,16.06
2023-04-18T11:24:11.082Z,13.82
2023-04-18T11:25:11.079Z,18.16
2023-04-18T11:26:11.097Z,14.78
2023-04-18T11:27:11.084Z,18.04
2023-04-18T11:28:11.074Z,13.16
2023-04-18T11:29:11.082Z,14.16
2023-04-18T11:30:11.085Z,14.18
2023-04-18T11:31:11.073Z,19.24
2023-04-18T11:32:11.110Z,18.36
2023-04-18T11:33:13.117Z,12.24
2023-04-18T11:34:11.166Z,15.94
2023-04-18T11:35:12.080Z,10.58
2023-04-18T11:36:11.080Z,11.06
2023-04-18T11:37:11.079Z,11.86
2023-04-18T11:38:12.078Z,14.86
2023-04-18T11:39:11.083Z,14.10
2023-04-18T11:40:12.073Z,10.86
2023-04-18T11:41:15.083Z,10.90
2023-04-18T11:42:11.108Z,14.38
2023-04-18T11:43:11.076Z,12.76
2023-04-18T11:44:11.133Z,10.98
2023-04-18T11:45:15.086Z,20.36
2023-04-18T11:46:11.083Z,9.78
2023-04-18T11:47:19.120Z,10.80
2023-04-18T11:48:11.077Z,10.52
2023-04-18T11:49:15.081Z,10.32
2023-04-18T11:50:11.079Z,12.22
2023-04-18T11:51:19.080Z,15.72
2023-04-18T11:52:13.082Z,10.60
2023-04-18T11:53:11.085Z,14.04
2023-04-18T11:54:19.077Z,11.68
2023-04-18T11:55:21.090Z,11.28
2023-04-18T11:56:12.089Z,7.24
2023-04-18T11:57:19.077Z,14.36
2023-04-18T11:58:11.087Z,16.32
2023-04-18T11:59:11.092Z,15.56
2023-04-18T12:00:13.091Z,17.26
2023-04-18T12:01:19.086Z,11.16
2023-04-18T12:03:15.205Z,15.78
2023-04-18T12:04:11.285Z,8.32
2023-04-18T12:05:11.654Z,10.04
2023-04-18T12:06:11.238Z,11.06
2023-04-18T12:07:11.082Z,11.66
2023-04-18T12:08:13.093Z,15.18
2023-04-18T12:09:14.084Z,9.96
2023-04-18T12:10:15.107Z,10.84
2023-04-18T12:11:11.079Z,9.76
2023-04-18T12:12:11.081Z,8.24
2023-04-18T12:13:11.084Z,12.54
2023-04-18T12:14:19.083Z,8.38
2023-04-18T12:15:15.098Z,11.52
2023-04-18T12:16:11.101Z,8.88
2023-04-18T12:17:12.084Z,11.50
2023-04-18T12:18:12.117Z,11.94
2023-04-18T12:19:11.085Z,9.06
2023-04-18T12:20:11.086Z,12.02
2023-04-18T12:21:11.082Z,6.44
2023-04-18T12:22:11.083Z,17.82
2023-04-18T12:23:11.084Z,7.74
2023-04-18T12:24:15.326Z,9.42
2023-04-18T12:25:19.081Z,11.16
2023-04-18T12:26:13.090Z,9.04
2023-04-18T12:27:11.086Z,8.66
2023-04-18T12:28:15.099Z,8.38
2023-04-18T12:29:11.156Z,7.02
2023-04-18T12:30:11.085Z,8.92
2023-04-18T12:31:12.109Z,11.04
2023-04-18T12:32:11.095Z,11.16
2023-04-18T12:33:11.106Z,12.76
2023-04-18T12:34:11.132Z,9.26
2023-04-18T12:35:11.083Z,12.74
2023-04-18T12:36:12.085Z,7.92
2023-04-18T12:37:11.086Z,7.38
2023-04-18T12:38:11.086Z,15.24
2023-04-18T12:39:11.084Z,9.42
2023-04-18T12:40:11.094Z,10.20
2023-04-18T12:41:11.082Z,9.18
2023-04-18T12:42:11.133Z,9.10
2023-04-18T12:43:11.086Z,8.66
2023-04-18T12:44:11.206Z,9.10
2023-04-18T12:45:11.101Z,10.70
2023-04-18T12:46:11.141Z,7.52
2023-04-18T12:47:11.252Z,13.56
2023-04-18T12:48:11.083Z,10.22
2023-04-18T12:49:11.083Z,9.00
2023-04-18T12:50:11.432Z,11.84
2023-04-18T12:51:11.085Z,7.52
2023-04-18T12:52:11.141Z,9.56
2023-04-18T12:53:11.082Z,10.22
2023-04-18T12:54:11.170Z,13.68
2023-04-18T12:55:11.090Z,9.48
2023-04-18T12:56:11.097Z,12.54
2023-04-18T12:57:11.086Z,9.02
2023-04-18T12:58:11.080Z,6.00
2023-04-18T12:59:11.121Z,9.86
2023-04-18T13:00:15.099Z,9.98
2023-04-18T13:01:11.129Z,16.44